Latest Weather Observations for Biloela

IDQ60801

Issued at 4:31 pm EST Sunday 23 September 2018 (issued every 10 minutes, with the page automatically refreshed every 10 minutes)

About weather observations | Map of weather stations | Latest weather observations for QLD | Other Formats
Station Details ID: 039089 Name: THANGOOL AIRPORT Lat: -24.49 Lon: 150.57 Height: 193.1 m
Data from the previous 72 hours. | See also: Recent months at Biloela
Date/Time
EST
Temp
°C
App
Temp
°C
Dew
Point
°C
Rel
Hum
%
Delta-T
°C
Wind Press
QNH
hPa
Press
MSL
hPa
Rain since
9am
mm
Dir  Spd
km/h
Gust
km/h
Spd
kts
Gust
kts
23/04:30pm 28.3 24.9 3.9 21 12.4 S 11 17 6 9 1018.4 - 0.0
23/04:00pm 28.3 24.2 4.6 22 12.2 S 15 22 8 12 1018.3 - 0.0
23/03:30pm 28.8 24.7 4.3 21 12.6 S 15 24 8 13 1018.3 - 0.0
23/03:00pm 28.9 25.3 5.1 22 12.4 ESE 13 20 7 11 1018.6 1018.1 0.0
23/02:30pm 28.7 25.2 5.5 23 12.2 SSE 13 22 7 12 1019.0 - 0.0
23/02:00pm 27.2 23.7 5.5 25 11.3 ESE 13 22 7 12 1019.5 - 0.0
23/01:30pm 29.0 26.1 6.4 24 12.1 NE 11 19 6 10 1019.9 - 0.0
23/01:00pm 27.8 23.1 6.0 25 11.5 S 20 28 11 15 1020.6 - 0.0
23/12:30pm 27.2 24.6 7.6 29 10.6 SE 11 19 6 10 1021.1 - 0.0
23/12:00pm 26.6 23.3 8.1 31 10.0 ESE 15 20 8 11 1021.8 1021.4 0.0
23/11:30am 25.8 23.2 9.2 35 9.1 S 13 20 7 11 1022.6 - 0.0
23/11:00am 25.7 24.0 9.9 37 8.8 SSE 9 19 5 10 1023.5 - 0.0
23/10:30am 24.2 22.2 10.1 41 7.8 SSE 11 20 6 11 1024.0 - 0.0
23/10:00am 23.8 22.3 10.5 43 7.4 SSE 9 17 5 9 1024.3 - 0.0
23/09:30am 23.2 21.7 10.6 45 7.0 SE 9 22 5 12 1024.5 - 0.0
23/09:00am 21.9 20.2 9.8 46 6.6 ESE 9 17 5 9 1024.9 1024.4 0.0
23/08:30am 20.0 18.8 10.4 54 5.2 SE 7 15 4 8 1025.0 - 0.0
23/08:00am 18.2 16.8 10.8 62 4.0 ESE 9 13 5 7 1025.0 - 0.0
23/07:30am 16.5 15.4 10.6 68 3.2 SE 7 11 4 6 1025.3 - 0.0
23/07:00am 12.8 11.3 8.5 75 2.2 S 6 7 3 4 1025.2 - 0.0
23/06:30am 11.2 9.2 8.8 85 1.2 ESE 9 11 5 6 1024.8 - 0.0
23/06:00am 9.4 7.1 7.3 87 1.0 E 9 11 5 6 1024.6 1024.1 0.0
23/05:30am 9.0 6.7 7.6 91 0.7 E 9 13 5 7 1024.5 - 0.0
23/05:00am 7.9 6.7 4.5 79 1.5 CALM 0 0 0 0 1024.2 - 0.0
23/04:30am 9.5 8.8 7.1 85 1.1 CALM 0 0 0 0 1023.9 - 0.0
23/04:00am 9.8 9.2 7.2 84 1.2 CALM 0 0 0 0 1023.7 - 0.0
23/03:30am 9.9 9.1 6.6 80 1.6 CALM 0 0 0 0 1023.6 - 0.0
23/03:00am 10.2 8.3 7.6 84 1.3 E 7 9 4 5 1023.5 1023.0 0.0
23/02:30am 9.9 8.1 7.0 82 1.4 ESE 6 9 3 5 1023.5 - 0.0
23/02:00am 10.5 9.0 6.6 77 1.9 S 4 7 2 4 1023.7 - 0.0
23/01:30am 11.7 11.2 7.8 77 1.9 CALM 0 0 0 0 1024.0 - 0.0
23/01:00am 12.0 11.5 7.9 76 2.0 CALM 0 0 0 0 1024.3 - 0.0
23/12:30am 12.3 12.0 8.6 78 1.9 CALM 0 0 0 0 1024.7 - 0.0
23/12:00am 12.8 12.3 7.9 72 2.4 CALM 0 0 0 0 1024.7 1024.2 0.0
 
Date/Time
EST
Temp
°C
App
Temp
°C
Dew
Point
°C
Rel
Hum
%
Delta-T
°C
Wind Press
QNH
hPa
Press
MSL
hPa
Rain since
9am
mm
Dir  Spd
km/h
Gust
km/h
Spd
kts
Gust
kts
22/11:30pm 14.4 13.1 9.2 71 2.7 SSE 6 7 3 4 1024.7 - 0.0
22/11:00pm 15.6 15.7 10.2 70 2.9 CALM 0 0 0 0 1024.7 - 0.0
22/10:30pm 16.1 14.8 9.8 66 3.3 NW 7 9 4 5 1024.8 - 0.0
22/10:00pm 15.9 14.4 8.4 61 3.8 N 6 9 3 5 1024.6 - 0.0
22/09:30pm 16.8 15.6 9.7 63 3.8 E 6 11 3 6 1024.6 - 0.0
22/09:00pm 17.7 16.3 9.6 59 4.3 ENE 7 9 4 5 1024.6 1024.1 0.0
22/08:30pm 18.5 18.0 9.3 55 4.9 N 2 7 1 4 1024.5 - 0.0
22/08:00pm 19.4 18.3 10.1 55 5.0 SE 6 9 3 5 1024.1 - 0.0
22/07:30pm 20.1 17.6 9.7 51 5.6 ENE 13 22 7 12 1023.6 - 0.0
22/07:00pm 20.9 18.0 9.5 48 6.1 NE 15 20 8 11 1023.1 - 0.0
22/06:30pm 22.0 18.3 9.5 45 6.8 NE 19 26 10 14 1022.6 - 0.0
22/06:00pm 23.1 19.6 8.8 40 7.7 ENE 17 22 9 12 1022.3 1021.9 0.0
22/05:30pm 24.5 21.2 4.3 27 10.1 ESE 11 15 6 8 1021.9 - 0.0
22/05:00pm 26.4 23.4 4.2 24 11.2 ESE 9 17 5 9 1021.6 - 0.0
22/04:30pm 26.5 23.2 4.3 24 11.3 ESE 11 17 6 9 1021.4 - 0.0
22/04:00pm 27.5 25.0 4.5 23 11.8 WSW 7 13 4 7 1021.1 - 0.0
22/03:30pm 27.0 21.9 4.1 23 11.6 E 20 24 11 13 1021.2 - 0.0
22/03:00pm 27.4 23.7 4.5 23 11.7 SSE 13 20 7 11 1021.3 1020.9 0.0
22/02:30pm 26.6 22.9 4.4 24 11.3 SSE 13 26 7 14 1021.7 - 0.0
22/02:00pm 26.7 23.0 4.5 24 11.3 E 13 22 7 12 1022.1 - 0.0
22/01:30pm 26.5 22.4 4.3 24 11.3 SE 15 24 8 13 1022.4 - 0.0
22/01:00pm 25.9 20.9 3.8 24 11.1 ESE 19 33 10 18 1023.0 - 0.0
22/12:30pm 25.5 21.9 5.1 27 10.4 ESE 13 26 7 14 1023.9 - 0.0
22/12:00pm 25.5 20.4 4.0 25 10.7 ENE 20 32 11 17 1024.5 1024.0 0.0
22/11:30am 25.2 20.6 5.4 28 10.2 E 19 33 10 18 1025.3 - 0.0
22/11:00am 24.3 19.1 5.6 30 9.6 E 22 33 12 18 1025.7 - 0.0
22/10:30am 24.1 18.2 5.9 31 9.4 E 26 32 14 17 1026.3 - 0.0
22/10:00am 22.9 19.6 6.6 35 8.4 SE 13 19 7 10 1026.5 - 0.0
22/09:30am 22.2 19.1 7.2 38 7.8 SE 13 24 7 13 1026.8 - 0.0
22/09:00am 20.6 17.4 8.3 45 6.4 E 15 26 8 14 1027.1 1026.7 0.0
22/08:30am 19.2 15.1 8.8 51 5.5 E 20 26 11 14 1027.1 - 0.0
22/08:00am 17.7 15.3 8.6 55 4.7 SE 11 17 6 9 1027.2 - 0.0
22/07:30am 15.9 14.3 8.6 62 3.8 SE 7 13 4 7 1026.9 - 0.0
22/07:00am 13.1 11.6 9.0 76 2.1 E 7 9 4 5 1026.9 - 0.0
22/06:30am 9.7 7.7 7.3 85 1.1 E 7 9 4 5 1026.6 - 0.0
22/06:00am 8.7 8.0 6.8 88 0.9 CALM 0 0 0 0 1026.1 1025.7 0.0
22/05:30am 8.9 8.0 6.0 82 1.3 CALM 0 2 0 1 1025.8 - 0.0
22/05:00am 10.2 8.1 6.7 79 1.7 ESE 7 9 4 5 1025.4 - 0.0
22/04:30am 11.4 9.3 8.1 80 1.6 ESE 9 13 5 7 1025.2 - 0.0
22/04:00am 10.4 8.7 8.3 87 1.0 ESE 7 11 4 6 1025.2 - 0.0
22/03:30am 9.1 7.0 6.0 81 1.4 E 6 6 3 3 1025.1 - 0.0
22/03:00am 10.0 8.1 6.5 79 1.6 ESE 6 7 3 4 1025.2 1024.7 0.0
22/02:30am 11.1 9.0 6.8 75 2.1 E 7 9 4 5 1025.3 - 0.0
22/02:00am 12.0 10.0 7.3 73 2.3 E 7 11 4 6 1025.5 - 0.0
22/01:30am 12.8 11.1 7.5 70 2.6 E 6 7 3 4 1025.6 - 0.0
22/01:00am 14.6 12.5 8.1 65 3.3 ESE 9 13 5 7 1025.6 - 0.0
22/12:30am 15.7 13.0 8.9 64 3.5 ESE 13 19 7 10 1025.7 - 0.0
22/12:00am 15.6 13.6 8.6 63 3.6 ESE 9 15 5 8 1025.6 1025.2 0.0
 
Date/Time
EST
Temp
°C
App
Temp
°C
Dew
Point
°C
Rel
Hum
%
Delta-T
°C
Wind Press
QNH
hPa
Press
MSL
hPa
Rain since
9am
mm
Dir  Spd
km/h
Gust
km/h
Spd
kts
Gust
kts
21/11:30pm 16.4 14.5 8.9 61 3.9 ESE 9 13 5 7 1025.7 - 0.0
21/11:00pm 16.7 14.3 8.7 59 4.1 SE 11 20 6 11 1025.5 - 0.0
21/10:30pm 17.6 14.6 9.2 58 4.4 ESE 15 20 8 11 1025.3 - 0.0
21/10:00pm 17.2 14.8 9.9 62 3.9 ESE 13 22 7 12 1025.3 - 0.0
21/09:30pm 15.4 14.7 8.4 63 3.6 E 2 6 1 3 1025.2 - 0.0
21/09:00pm 16.1 15.7 8.3 60 4.0 CALM 0 0 0 0 1024.8 1024.3 0.0
21/08:30pm 17.4 17.1 8.8 57 4.5 CALM 0 6 0 3 1024.5 - 0.0
21/08:00pm 18.5 16.1 8.7 53 5.1 E 11 15 6 8 1023.9 - 0.0
21/07:30pm 19.6 16.8 8.6 49 5.8 E 13 17 7 9 1023.4 - 0.0
21/07:00pm 20.7 17.7 9.3 48 6.1 NE 15 22 8 12 1022.7 - 0.0
21/06:30pm 21.6 19.2 8.8 44 6.8 NNE 11 19 6 10 1022.0 - 0.0
21/06:00pm 22.9 19.8 3.4 28 9.5 ESE 9 13 5 7 1021.4 1021.0 0.0
21/05:30pm 24.4 20.4 3.1 25 10.4 ESE 13 19 7 10 1021.1 - 0.0
21/05:00pm 25.5 22.0 3.5 24 10.9 SE 11 20 6 11 1020.7 - 0.0
21/04:30pm 25.9 21.2 3.2 23 11.3 E 17 24 9 13 1020.3 - 0.0
21/04:00pm 26.1 21.3 2.7 22 11.5 ESE 17 24 9 13 1020.0 - 0.0
21/03:30pm 26.2 21.8 2.8 22 11.5 SSE 15 22 8 12 1020.0 - 0.0
21/03:00pm 26.5 22.8 2.4 21 11.8 SSE 11 26 6 14 1020.0 1019.5 0.0
21/02:30pm 26.5 22.0 2.4 21 11.8 SE 15 24 8 13 1020.2 - 0.0
21/02:00pm 26.5 22.5 3.1 22 11.6 SSE 13 20 7 11 1020.4 - 0.0
21/01:30pm 25.8 21.6 1.8 21 11.6 SSE 13 20 7 11 1020.9 - 0.0
21/01:00pm 25.9 20.7 2.6 22 11.4 SE 19 33 10 18 1021.1 - 0.0
21/12:30pm 25.8 20.3 1.8 21 11.6 E 20 26 11 14 1021.7 - 0.0
21/12:00pm 24.2 19.7 2.4 24 10.5 ESE 15 26 8 14 1022.1 1021.7 0.0
21/11:30am 24.3 19.0 1.9 23 10.7 SE 19 30 10 16 1022.9 - 0.0
21/11:00am 22.8 17.7 0.6 23 10.3 ESE 17 28 9 15 1023.4 - 0.0
21/10:30am 21.8 14.8 -0.2 23 9.9 ESE 26 37 14 20 1023.8 - 0.0
21/10:00am 22.0 16.1 -0.7 22 10.2 ESE 20 37 11 20 1023.8 - 0.0
21/09:30am 20.9 14.0 0.2 25 9.3 ESE 26 41 14 22 1024.0 - 0.0
21/09:00am 20.1 14.0 0.5 27 8.8 ESE 22 35 12 19 1023.9 1023.4 0.0
21/08:30am 19.2 14.1 0.8 29 8.3 ESE 17 24 9 13 1023.9 - 0.0
21/08:00am 17.2 12.4 -2.4 26 8.1 SE 13 24 7 13 1023.9 - 0.0
21/07:30am 14.9 9.5 -4.9 25 7.6 SE 15 22 8 12 1023.6 - 0.0
21/07:00am 12.7 8.4 -4.9 29 6.6 SE 9 19 5 10 1023.3 - 0.0
21/06:30am 11.2 7.3 -4.9 32 5.9 SSE 7 15 4 8 1022.9 - 0.0
21/06:00am 9.3 5.3 -5.4 35 5.2 S 7 11 4 6 1022.5 1022.1 0.0
21/05:30am 10.0 6.0 -5.5 33 5.5 SE 7 15 4 8 1022.0 - 0.0
21/05:00am 10.0 6.5 -5.9 32 5.6 SE 4 7 2 4 1021.7 - 0.0
21/04:30am 11.8 8.4 -5.6 29 6.3 SSE 4 9 2 5 1021.5 - 0.0
21/04:00am 13.0 8.6 -5.5 27 6.8 SE 9 17 5 9 1021.1 - 0.0
21/03:30am 13.1 8.7 -5.4 27 6.9 SE 9 17 5 9 1020.8 - 0.0
21/03:00am 13.8 9.5 -5.3 26 7.1 SE 9 20 5 11 1020.6 1020.1 0.0
21/02:30am 13.6 9.2 -5.5 26 7.1 SE 9 15 5 8 1020.7 - 0.0
21/02:00am 13.7 9.3 -5.9 25 7.2 SE 9 17 5 9 1020.7 - 0.0
21/01:30am 14.1 9.7 -5.6 25 7.4 SSE 9 17 5 9 1020.7 - 0.0
21/01:00am 14.8 10.8 -6.1 23 7.8 SE 7 13 4 7 1020.9 - 0.0
21/12:30am 15.9 11.1 -6.4 21 8.4 SSE 11 19 6 10 1020.8 - 0.0
21/12:00am 16.1 11.7 -6.2 21 8.4 SSE 9 13 5 7 1020.8 1020.3 0.0
 
Date/Time
EST
Temp
°C
App
Temp
°C
Dew
Point
°C
Rel
Hum
%
Delta-T
°C
Wind Press
QNH
hPa
Press
MSL
hPa
Rain since
9am
mm
Dir  Spd
km/h
Gust
km/h
Spd
kts
Gust
kts
20/11:30pm 17.3 12.1 -6.5 19 9.0 SE 13 20 7 11 1020.6 - 0.0
20/11:00pm 17.7 12.1 -6.9 18 9.3 ESE 15 22 8 12 1020.6 - 0.0
20/10:30pm 18.4 13.1 -7.1 17 9.7 ESE 13 19 7 10 1020.3 - 0.0
20/10:00pm 19.1 14.1 -8.1 15 10.2 SSE 11 20 6 11 1019.8 - 0.0
20/09:30pm 19.9 14.2 -7.5 15 10.5 E 15 22 8 12 1019.5 - 0.0
20/09:00pm 20.9 15.6 -7.6 14 11.0 ESE 13 20 7 11 1019.0 1018.5 0.0
20/08:30pm 21.9 15.1 -8.8 12 11.7 S 20 41 11 22 1018.1 - 0.0
20/08:00pm 22.4 16.6 -8.4 12 11.9 S 15 28 8 15 1017.5 - 0.0
20/07:30pm 22.9 17.4 -9.1 11 12.3 S 13 20 7 11 1017.2 - 0.0
20/07:00pm 23.7 17.8 -9.7 10 12.8 SSW 15 22 8 12 1016.6 - 0.0
20/06:30pm 24.1 18.8 -7.0 12 12.6 SSW 13 26 7 14 1015.9 - 0.0
20/06:00pm 25.5 19.7 -4.9 13 12.9 SSW 17 26 9 14 1015.4 1014.9 0.0
20/05:30pm 26.8 21.2 -2.9 14 13.3 SSW 17 26 9 14 1014.9 - 0.0
20/05:00pm 28.0 22.5 -2.0 14 13.7 SSW 17 28 9 15 1014.4 - 0.0

Other Formats:

Comma delimited format used in spreadsheet applications
http://www.bom.gov.au/fwo/IDQ60801/IDQ60801.94376.axf

JavaScript Object Notation format (JSON) in row-major order
http://www.bom.gov.au/fwo/IDQ60801/IDQ60801.94376.json